createdAt,value
2023-05-21T00:01:32.626Z,7.18
2023-05-21T00:06:37.573Z,7.50
2023-05-21T00:11:39.703Z,7.28
2023-05-21T00:16:41.933Z,7.30
2023-05-21T00:21:46.021Z,7.03
2023-05-21T00:26:48.298Z,6.80
2023-05-21T00:31:51.218Z,7.10
2023-05-21T00:36:53.741Z,6.85
2023-05-21T00:41:57.149Z,7.40
2023-05-21T00:46:59.517Z,6.93
2023-05-21T00:52:01.857Z,7.12
2023-05-21T00:57:04.371Z,6.53
2023-05-21T01:02:07.102Z,6.80
2023-05-21T01:07:09.698Z,6.62
2023-05-21T01:12:13.292Z,6.63
2023-05-21T01:17:16.366Z,6.73
2023-05-21T01:22:21.904Z,6.90
2023-05-21T01:27:24.024Z,6.62
2023-05-21T01:32:32.302Z,7.20
2023-05-21T01:37:44.975Z,6.80
2023-05-21T01:42:47.672Z,6.30
2023-05-21T01:47:51.749Z,7.20
2023-05-21T01:52:57.020Z,7.18
2023-05-21T01:58:02.011Z,7.15
2023-05-21T02:03:04.897Z,7.00
2023-05-21T02:08:08.536Z,6.50
2023-05-21T02:13:10.657Z,6.70
2023-05-21T02:18:16.897Z,6.70
2023-05-21T02:23:19.215Z,7.07
2023-05-21T02:28:21.397Z,7.03
2023-05-21T02:33:23.638Z,6.93
2023-05-21T02:38:25.857Z,6.53
2023-05-21T02:43:28.004Z,6.90
2023-05-21T02:48:30.108Z,6.75
2023-05-21T02:53:32.248Z,6.63
2023-05-21T02:58:34.472Z,7.00
2023-05-21T03:03:36.747Z,7.03
2023-05-21T03:08:39.411Z,7.82
2023-05-21T03:13:42.760Z,6.97
2023-05-21T03:18:45.195Z,6.90
2023-05-21T03:23:47.809Z,6.85
2023-05-21T03:28:49.903Z,7.17
2023-05-21T03:33:52.703Z,7.18
2023-05-21T03:38:54.854Z,6.70
2023-05-21T03:48:59.370Z,7.20
2023-05-21T03:54:01.703Z,7.37
2023-05-21T03:59:03.986Z,6.55
2023-05-21T04:04:06.319Z,6.80
2023-05-21T04:09:08.572Z,7.10
2023-05-21T04:14:10.730Z,7.00
2023-05-21T04:19:12.985Z,6.97
2023-05-21T04:24:15.247Z,6.78
2023-05-21T04:29:21.395Z,7.12
2023-05-21T04:34:23.607Z,6.57
2023-05-21T04:39:25.770Z,6.70
2023-05-21T04:44:27.874Z,6.65
2023-05-21T04:49:30.194Z,5.85
2023-05-21T04:54:32.368Z,5.97
2023-05-21T04:59:35.183Z,6.10
2023-05-21T05:04:37.319Z,6.40
2023-05-21T05:09:39.413Z,6.40
2023-05-21T05:14:41.550Z,5.10
2023-05-21T05:19:43.666Z,4.40
2023-05-21T05:24:45.807Z,4.10
2023-05-21T05:29:48.195Z,4.83
2023-05-21T05:34:50.745Z,4.57
2023-05-21T05:39:52.850Z,4.35
2023-05-21T05:44:55.275Z,4.47
2023-05-21T05:49:57.454Z,4.03
2023-05-21T05:54:59.583Z,4.43
2023-05-21T06:00:01.987Z,4.47
2023-05-21T06:05:04.480Z,4.18
2023-05-21T06:10:07.558Z,4.60
2023-05-21T06:15:10.044Z,4.30
2023-05-21T06:20:12.414Z,4.43
2023-05-21T06:25:14.637Z,4.90
2023-05-21T06:30:16.847Z,4.40
2023-05-21T06:35:19.045Z,4.17
2023-05-21T06:40:22.078Z,4.25
2023-05-21T06:45:24.916Z,3.87
2023-05-21T06:50:27.115Z,4.50
2023-05-21T06:55:29.244Z,4.10
2023-05-21T07:00:31.392Z,3.65
2023-05-21T07:05:33.587Z,3.80
2023-05-21T07:10:35.710Z,3.70
2023-05-21T07:15:38.189Z,4.30
2023-05-21T07:20:40.450Z,4.40
2023-05-21T07:25:42.573Z,3.90
2023-05-21T07:30:44.709Z,4.65
2023-05-21T07:35:46.813Z,4.53
2023-05-21T07:40:49.022Z,4.60
2023-05-21T07:45:51.388Z,4.10
2023-05-21T07:50:53.633Z,4.00
2023-05-21T07:55:55.761Z,4.60
2023-05-21T08:00:58.588Z,4.70
2023-05-21T08:06:00.702Z,4.05
2023-05-21T08:11:02.868Z,3.58
2023-05-21T08:16:06.151Z,3.73
2023-05-21T08:21:08.557Z,4.10
2023-05-21T08:26:11.131Z,4.10
2023-05-21T08:31:13.429Z,3.90
2023-05-21T08:36:15.512Z,4.37
2023-05-21T08:41:22.112Z,3.95
2023-05-21T08:46:27.418Z,4.00
2023-05-21T08:51:31.182Z,3.50
2023-05-21T08:56:34.635Z,3.50
2023-05-21T09:01:38.307Z,3.50
2023-05-21T09:06:40.970Z,3.40
2023-05-21T09:11:43.745Z,3.87
2023-05-21T09:16:48.687Z,3.62
2023-05-21T09:21:52.908Z,3.37
2023-05-21T09:26:57.398Z,3.22
2023-05-21T09:32:06.988Z,3.50
2023-05-21T09:37:23.839Z,3.40
2023-05-21T09:42:30.038Z,3.37
2023-05-21T09:47:32.597Z,3.58
2023-05-21T09:52:37.306Z,3.83
2023-05-21T09:57:48.045Z,4.10
2023-05-21T10:02:55.926Z,3.37
2023-05-21T10:08:02.813Z,3.17
2023-05-21T10:13:07.043Z,4.00
2023-05-21T10:18:10.711Z,3.42
2023-05-21T10:23:13.209Z,3.50
2023-05-21T10:28:18.082Z,3.00
2023-05-21T10:33:25.168Z,3.57
2023-05-21T10:38:28.065Z,3.03
2023-05-21T10:43:36.236Z,3.50
2023-05-21T10:48:44.248Z,3.00
2023-05-21T10:54:01.809Z,3.40
2023-05-21T10:59:22.526Z,3.30
2023-05-21T11:04:28.321Z,3.63
2023-05-21T11:09:30.702Z,3.28
2023-05-21T11:14:43.601Z,2.60
2023-05-21T11:19:52.708Z,3.07
2023-05-21T11:24:56.418Z,3.60
2023-05-21T11:29:58.781Z,4.15
2023-05-21T11:35:02.421Z,3.22
2023-05-21T11:40:37.408Z,3.13
2023-05-21T11:45:39.862Z,3.58
2023-05-21T11:50:44.902Z,3.15
2023-05-21T11:55:47.487Z,3.67
2023-05-21T12:00:51.395Z,3.37
2023-05-21T12:05:54.198Z,3.95
2023-05-21T12:11:00.197Z,3.10
2023-05-21T12:16:05.132Z,3.90
2023-05-21T12:21:10.578Z,4.10
2023-05-21T12:26:15.061Z,3.65
2023-05-21T12:31:17.595Z,3.70
2023-05-21T12:36:34.436Z,3.45
2023-05-21T12:41:36.613Z,3.60
2023-05-21T12:46:38.900Z,3.60
2023-05-21T12:51:41.414Z,4.20
2023-05-21T12:56:46.535Z,3.50
2023-05-21T13:01:48.891Z,3.40
2023-05-21T13:06:51.442Z,3.70
2023-05-21T13:11:53.537Z,3.80
2023-05-21T13:16:55.721Z,3.70
2023-05-21T13:21:57.901Z,3.23
2023-05-21T13:27:00.033Z,3.20
2023-05-21T13:32:02.374Z,4.57
2023-05-21T13:37:04.519Z,3.20
2023-05-21T13:42:07.057Z,3.50
2023-05-21T13:47:10.671Z,3.50
2023-05-21T13:52:12.860Z,3.60
2023-05-21T13:57:15.801Z,3.40
2023-05-21T14:02:18.054Z,3.47
2023-05-21T14:07:20.349Z,3.75
2023-05-21T14:12:22.507Z,3.50
2023-05-21T14:17:24.704Z,3.30
2023-05-21T14:22:26.996Z,3.17
2023-05-21T14:27:29.239Z,4.07
2023-05-21T14:32:31.878Z,4.22
2023-05-21T14:37:34.049Z,3.60
2023-05-21T14:42:36.741Z,3.40
2023-05-21T14:47:38.906Z,3.70
2023-05-21T14:52:43.405Z,3.78
2023-05-21T14:57:45.586Z,3.10
2023-05-21T15:02:48.091Z,4.10
2023-05-21T15:07:50.642Z,3.90
2023-05-21T15:12:53.014Z,3.15
2023-05-21T15:17:57.031Z,3.50
2023-05-21T15:23:15.476Z,3.83
2023-05-21T15:28:19.599Z,3.85
2023-05-21T15:33:21.760Z,3.77
2023-05-21T15:38:23.999Z,3.50
2023-05-21T15:43:26.081Z,3.53
2023-05-21T15:48:28.210Z,3.72
2023-05-21T15:53:30.387Z,3.43
2023-05-21T15:58:32.607Z,3.78
2023-05-21T16:03:34.810Z,3.92
2023-05-21T16:08:37.443Z,4.03
2023-05-21T16:13:39.842Z,3.90
2023-05-21T16:18:42.005Z,3.60
2023-05-21T16:23:44.154Z,3.37
2023-05-21T16:28:46.237Z,3.43
2023-05-21T16:33:48.364Z,3.75
2023-05-21T16:38:50.460Z,3.80
2023-05-21T16:43:54.294Z,3.90
2023-05-21T16:48:56.403Z,3.60
2023-05-21T16:53:58.796Z,3.78
2023-05-21T16:59:00.912Z,3.17
2023-05-21T17:04:03.263Z,3.50
2023-05-21T17:09:05.521Z,3.72
2023-05-21T17:14:07.776Z,3.57
2023-05-21T17:19:10.068Z,4.00
2023-05-21T17:24:12.257Z,3.37
2023-05-21T17:29:14.406Z,3.90
2023-05-21T17:34:16.733Z,4.00
2023-05-21T17:39:19.653Z,4.40
2023-05-21T17:44:21.960Z,4.30
2023-05-21T17:49:24.105Z,3.90
2023-05-21T17:54:26.218Z,4.10
2023-05-21T17:59:28.443Z,4.20
2023-05-21T18:04:30.958Z,4.50
2023-05-21T18:09:33.349Z,5.00
2023-05-21T18:14:35.511Z,5.30
2023-05-21T18:19:37.679Z,4.60
2023-05-21T18:24:39.848Z,4.30
2023-05-21T18:29:41.953Z,4.20
2023-05-21T18:34:44.132Z,3.95
2023-05-21T18:39:46.259Z,4.40
2023-05-21T18:44:51.153Z,4.82
2023-05-21T18:49:53.289Z,4.30
2023-05-21T18:54:55.812Z,4.80
2023-05-21T19:00:00.165Z,4.33
2023-05-21T19:05:02.982Z,5.10
2023-05-21T19:10:05.738Z,5.50
2023-05-21T19:15:08.538Z,5.17
2023-05-21T19:20:10.872Z,5.00
2023-05-21T19:25:12.981Z,4.95
2023-05-21T19:30:15.211Z,5.27
2023-05-21T19:35:17.432Z,5.32
2023-05-21T19:40:22.591Z,5.18
2023-05-21T19:45:25.461Z,4.70
2023-05-21T19:50:28.860Z,5.17
2023-05-21T19:55:35.665Z,5.43
2023-05-21T20:00:39.195Z,5.45
2023-05-21T20:05:41.412Z,5.83
2023-05-21T20:10:43.569Z,5.55
2023-05-21T20:15:45.708Z,6.15
2023-05-21T20:20:47.900Z,5.83
2023-05-21T20:25:50.071Z,6.05
2023-05-21T20:30:54.651Z,6.15
2023-05-21T20:35:57.200Z,6.37
2023-05-21T20:41:00.493Z,6.87
2023-05-21T20:46:05.790Z,6.68
2023-05-21T20:51:08.142Z,6.45
2023-05-21T20:56:11.948Z,6.73
2023-05-21T21:01:17.557Z,6.65
2023-05-21T21:06:20.092Z,6.70
2023-05-21T21:11:22.368Z,6.73
2023-05-21T21:16:24.508Z,6.70
2023-05-21T21:21:27.663Z,6.90
2023-05-21T21:26:29.937Z,6.40
2023-05-21T21:31:32.158Z,6.33
2023-05-21T21:36:34.409Z,6.22
2023-05-21T21:41:36.555Z,6.00
2023-05-21T21:46:39.090Z,5.80
2023-05-21T21:51:41.274Z,5.90
2023-05-21T21:56:43.667Z,6.18
2023-05-21T22:01:45.898Z,5.27
2023-05-21T22:06:48.315Z,5.62
2023-05-21T22:11:50.871Z,5.87
2023-05-21T22:16:53.502Z,5.80
2023-05-21T22:21:55.668Z,5.50
2023-05-21T22:26:57.847Z,6.15
2023-05-21T22:32:00.045Z,5.78
2023-05-21T22:37:02.221Z,5.70
2023-05-21T22:42:04.688Z,5.68
2023-05-21T22:47:09.368Z,6.03
2023-05-21T22:52:11.729Z,5.67
2023-05-21T22:57:14.301Z,6.18
2023-05-21T23:02:16.702Z,6.18
2023-05-21T23:07:18.915Z,5.67
2023-05-21T23:12:21.156Z,6.30
2023-05-21T23:17:23.376Z,5.70
2023-05-21T23:22:25.485Z,5.28
2023-05-21T23:27:27.767Z,5.70
2023-05-21T23:32:30.136Z,5.75
2023-05-21T23:37:32.405Z,5.35
2023-05-21T23:42:34.713Z,6.00
2023-05-21T23:47:36.852Z,5.75
2023-05-21T23:52:41.369Z,5.78
2023-05-21T23:57:43.606Z,5.37
